createdAt,value
2019-05-29T00:00:24.463Z,101452.55
2019-05-29T00:02:53.506Z,101454.53
2019-05-29T00:05:22.551Z,101453.84
2019-05-29T00:07:51.565Z,101455.84
2019-05-29T00:10:20.634Z,101459.50
2019-05-29T00:12:49.930Z,101459.80
2019-05-29T00:15:18.953Z,101456.67
2019-05-29T00:17:48.638Z,101456.82
2019-05-29T00:20:18.641Z,101460.80
2019-05-29T00:22:48.072Z,101460.23
2019-05-29T00:25:18.775Z,101465.11
2019-05-29T00:27:47.873Z,101467.39
2019-05-29T00:30:17.085Z,101467.39
2019-05-29T00:32:46.487Z,101468.55
2019-05-29T00:35:16.455Z,101466.70
2019-05-29T00:37:45.526Z,101470.07
2019-05-29T00:40:15.108Z,101464.69
2019-05-29T00:42:44.554Z,101464.36
2019-05-29T00:45:15.627Z,101468.63
2019-05-29T00:47:44.735Z,101467.28
2019-05-29T00:50:14.368Z,101461.10
2019-05-29T00:52:43.387Z,101474.77
2019-05-29T00:55:12.696Z,101473.36
2019-05-29T00:57:42.102Z,101468.62
2019-05-29T01:00:13.229Z,101474.86
2019-05-29T01:02:42.484Z,101475.42
2019-05-29T01:05:12.005Z,101480.45
2019-05-29T01:07:41.092Z,101479.20
2019-05-29T01:10:10.656Z,101479.64
2019-05-29T01:12:39.707Z,101484.10
2019-05-29T01:15:11.149Z,101485.81
2019-05-29T01:17:40.540Z,101491.16
2019-05-29T01:20:09.788Z,101496.92
2019-05-29T01:22:39.454Z,101495.08
2019-05-29T01:25:08.963Z,101497.89
2019-05-29T01:27:38.249Z,101500.56
2019-05-29T01:30:07.393Z,101507.48
2019-05-29T01:32:36.789Z,101507.20
2019-05-29T01:35:06.374Z,101507.90
2019-05-29T01:37:35.389Z,101499.73
2019-05-29T01:40:19.298Z,101505.03
2019-05-29T01:42:36.831Z,101504.03
2019-05-29T01:45:08.159Z,101508.27
2019-05-29T01:47:36.869Z,101518.16
2019-05-29T01:50:06.313Z,101515.39
2019-05-29T01:52:35.333Z,101520.73
2019-05-29T01:55:04.945Z,101521.30
2019-05-29T01:57:33.951Z,101519.07
2019-05-29T02:00:02.984Z,101527.50
2019-05-29T02:02:32.064Z,101527.52
2019-05-29T02:05:01.084Z,101534.90
2019-05-29T02:07:30.092Z,101540.45
2019-05-29T02:09:59.090Z,101536.95
2019-05-29T02:12:28.132Z,101541.84
2019-05-29T02:14:57.413Z,101542.48
2019-05-29T02:17:26.464Z,101541.00
2019-05-29T02:19:55.812Z,101545.00
2019-05-29T02:22:25.520Z,101544.30
2019-05-29T02:24:54.511Z,101544.30
2019-05-29T02:27:23.554Z,101542.48
2019-05-29T02:29:52.907Z,101544.88
2019-05-29T02:32:23.477Z,101548.89
2019-05-29T02:34:52.671Z,101546.48
2019-05-29T02:37:22.278Z,101550.49
2019-05-29T02:39:51.373Z,101550.86
2019-05-29T02:42:20.975Z,101554.63
2019-05-29T02:44:50.528Z,101552.97
2019-05-29T02:47:19.523Z,101548.05
2019-05-29T02:49:48.843Z,101551.28
2019-05-29T02:52:17.871Z,101546.98
2019-05-29T02:54:46.900Z,101559.00
2019-05-29T02:57:15.911Z,101550.55
2019-05-29T02:59:45.270Z,101555.63
2019-05-29T03:02:14.308Z,101559.09
2019-05-29T03:04:43.303Z,101556.42
2019-05-29T03:07:12.321Z,101554.66
2019-05-29T03:09:41.578Z,101558.56
2019-05-29T03:12:10.910Z,101564.97
2019-05-29T03:14:39.940Z,101558.43
2019-05-29T03:17:09.316Z,101560.13
2019-05-29T03:19:38.743Z,101560.00
2019-05-29T03:22:08.018Z,101561.90
2019-05-29T03:24:37.037Z,101562.59
2019-05-29T03:27:06.187Z,101564.34
2019-05-29T03:29:35.502Z,101571.02
2019-05-29T03:32:04.582Z,101568.14
2019-05-29T03:34:39.244Z,101576.00
2019-05-29T03:37:04.656Z,101582.03
2019-05-29T03:39:34.656Z,101586.20
2019-05-29T03:42:03.725Z,101584.70
2019-05-29T03:44:35.208Z,101590.41
2019-05-29T03:47:03.887Z,101587.02
2019-05-29T03:49:33.710Z,101589.48
2019-05-29T03:52:04.149Z,101592.78
2019-05-29T03:54:34.976Z,101592.38
2019-05-29T03:57:03.915Z,101596.95
2019-05-29T03:59:34.644Z,101604.53
2019-05-29T04:02:03.767Z,101606.44
2019-05-29T04:04:33.490Z,101604.27
2019-05-29T04:07:03.252Z,101606.14
2019-05-29T04:09:33.292Z,101608.23
2019-05-29T04:12:02.536Z,101611.04
2019-05-29T04:14:31.693Z,101606.33
2019-05-29T04:17:01.515Z,101605.63
2019-05-29T04:19:32.630Z,101609.87
2019-05-29T04:22:07.694Z,101609.37
2019-05-29T04:24:39.226Z,101612.74
2019-05-29T04:27:10.432Z,101618.25
2019-05-29T04:29:39.474Z,101619.59
2019-05-29T04:32:09.230Z,101625.06
2019-05-29T04:34:39.993Z,101621.33
2019-05-29T04:37:09.127Z,101624.49
2019-05-29T04:39:39.061Z,101622.79
2019-05-29T04:42:08.563Z,101621.31
2019-05-29T04:44:39.105Z,101631.36
2019-05-29T04:47:11.550Z,101629.97
2019-05-29T04:49:40.134Z,101633.54
2019-05-29T04:52:09.195Z,101634.91
2019-05-29T04:54:40.128Z,101633.44
2019-05-29T04:57:09.693Z,101637.58
2019-05-29T04:59:39.250Z,101643.25
2019-05-29T05:02:08.442Z,101641.55
2019-05-29T05:04:37.466Z,101649.56
2019-05-29T05:07:06.825Z,101651.66
2019-05-29T05:09:35.891Z,101645.14
2019-05-29T05:12:04.907Z,101652.25
2019-05-29T05:14:34.602Z,101652.25
2019-05-29T05:17:04.661Z,101660.48
2019-05-29T05:19:33.936Z,101659.08
2019-05-29T05:22:03.044Z,101657.17
2019-05-29T05:24:32.218Z,101660.96
2019-05-29T05:27:01.601Z,101663.92
2019-05-29T05:29:30.647Z,101663.25
2019-05-29T05:32:00.024Z,101661.45
2019-05-29T05:34:30.462Z,101657.52
2019-05-29T05:37:00.241Z,101654.61
2019-05-29T05:39:30.708Z,101664.44
2019-05-29T05:42:00.301Z,101669.92
2019-05-29T05:44:30.698Z,101676.14
2019-05-29T05:46:59.807Z,101658.81
2019-05-29T05:49:29.437Z,101679.80
2019-05-29T05:51:58.847Z,101675.57
2019-05-29T05:54:28.229Z,101674.84
2019-05-29T05:56:57.256Z,101674.78
2019-05-29T05:59:26.311Z,101676.52
2019-05-29T06:01:55.673Z,101676.26
2019-05-29T06:04:24.717Z,101682.05
2019-05-29T06:06:54.177Z,101683.16
2019-05-29T06:09:23.616Z,101683.27
2019-05-29T06:11:52.955Z,101679.06
2019-05-29T06:14:21.975Z,101684.55
2019-05-29T06:16:51.079Z,101682.66
2019-05-29T06:19:20.211Z,101686.11
2019-05-29T06:21:49.233Z,101679.77
2019-05-29T06:24:18.256Z,101682.91
2019-05-29T06:26:47.876Z,101688.98
2019-05-29T06:29:16.909Z,101688.41
2019-05-29T06:31:45.919Z,101692.12
2019-05-29T06:34:15.638Z,101694.53
2019-05-29T06:36:48.045Z,101698.30
2019-05-29T06:39:15.474Z,101701.13
2019-05-29T06:41:44.877Z,101707.14
2019-05-29T06:44:14.225Z,101707.77
2019-05-29T06:46:45.318Z,101710.88
2019-05-29T06:49:13.974Z,101703.44
2019-05-29T06:51:43.457Z,101713.63
2019-05-29T06:54:12.641Z,101713.80
2019-05-29T06:56:41.971Z,101708.98
2019-05-29T06:59:11.353Z,101714.05
2019-05-29T07:01:41.712Z,101714.38
2019-05-29T07:04:12.603Z,101725.61
2019-05-29T07:06:42.748Z,101725.57
2019-05-29T07:09:12.135Z,101731.03
2019-05-29T07:11:41.537Z,101730.22
2019-05-29T07:14:10.590Z,101726.02
2019-05-29T07:16:45.321Z,101733.09
2019-05-29T07:19:45.077Z,101731.75
2019-05-29T07:21:42.724Z,101728.08
2019-05-29T07:24:12.521Z,101734.13
2019-05-29T07:26:43.109Z,101739.18
2019-05-29T07:29:12.782Z,101733.61
2019-05-29T07:31:42.938Z,101741.86
2019-05-29T07:34:12.021Z,101731.79
2019-05-29T07:36:41.955Z,101740.50
2019-05-29T07:39:11.215Z,101741.12
2019-05-29T07:41:41.429Z,101736.02
2019-05-29T07:44:10.813Z,101733.22
2019-05-29T07:46:40.112Z,101727.13
2019-05-29T07:49:09.444Z,101732.50
2019-05-29T07:51:38.533Z,101734.91
2019-05-29T07:54:07.821Z,101738.98
2019-05-29T07:56:36.834Z,101740.94
2019-05-29T07:59:05.875Z,101739.20
2019-05-29T08:01:34.929Z,101735.56
2019-05-29T08:04:04.637Z,101747.98
2019-05-29T08:06:34.020Z,101745.14
2019-05-29T08:09:04.567Z,101740.33
2019-05-29T08:11:33.572Z,101728.59
2019-05-29T08:14:02.612Z,101743.73
2019-05-29T08:16:31.904Z,101740.97
2019-05-29T08:19:01.231Z,101740.73
2019-05-29T08:21:30.267Z,101751.36
2019-05-29T08:23:59.895Z,101756.15
2019-05-29T08:26:28.919Z,101752.31
2019-05-29T08:28:57.961Z,101763.16
2019-05-29T08:31:26.972Z,101757.08
2019-05-29T08:33:56.075Z,101759.09
2019-05-29T08:36:25.144Z,101756.20
2019-05-29T08:38:54.223Z,101761.31
2019-05-29T08:41:23.293Z,101748.78
2019-05-29T08:43:52.906Z,101753.33
2019-05-29T08:46:22.287Z,101750.25
2019-05-29T08:48:52.254Z,101756.39
2019-05-29T08:51:21.639Z,101753.39
2019-05-29T08:53:53.036Z,101749.22
2019-05-29T08:56:21.457Z,101749.34
2019-05-29T08:58:50.815Z,101748.11
2019-05-29T09:01:19.898Z,101749.70
2019-05-29T09:03:50.994Z,101747.89
2019-05-29T09:06:20.318Z,101744.75
2019-05-29T09:08:50.499Z,101747.47
2019-05-29T09:11:20.391Z,101745.81
2019-05-29T09:13:49.441Z,101752.03
2019-05-29T09:16:18.573Z,101752.50
2019-05-29T09:18:47.621Z,101751.66
2019-05-29T09:21:18.026Z,101749.38
2019-05-29T09:23:47.715Z,101748.75
2019-05-29T09:26:21.192Z,101749.56
2019-05-29T09:28:47.578Z,101753.28
2019-05-29T09:31:18.411Z,101755.87
2019-05-29T09:33:47.538Z,101755.63
2019-05-29T09:36:17.504Z,101752.91
2019-05-29T09:38:47.632Z,101760.90
2019-05-29T09:41:17.442Z,101757.15
2019-05-29T09:43:58.426Z,101757.84
2019-05-29T09:46:18.842Z,101759.20
2019-05-29T09:48:49.983Z,101755.47
2019-05-29T09:51:21.591Z,101758.84
2019-05-29T09:53:50.325Z,101759.96
2019-05-29T09:56:19.676Z,101753.17
2019-05-29T09:58:48.691Z,101755.30
2019-05-29T10:01:23.883Z,101753.84
2019-05-29T10:03:49.069Z,101747.05
2019-05-29T10:06:18.400Z,101757.05
2019-05-29T10:08:47.681Z,101754.71
2019-05-29T10:11:17.075Z,101745.95
2019-05-29T10:13:46.127Z,101744.20
2019-05-29T10:16:15.375Z,101744.38
2019-05-29T10:18:44.785Z,101743.72
2019-05-29T10:21:14.158Z,101743.72
2019-05-29T10:23:43.264Z,101740.56
2019-05-29T10:26:12.836Z,101746.00
2019-05-29T10:28:56.079Z,101738.86
2019-05-29T10:31:12.914Z,101743.43
2019-05-29T10:33:42.401Z,101737.77
2019-05-29T10:36:11.490Z,101738.34
2019-05-29T10:38:40.504Z,101743.94
2019-05-29T10:41:10.359Z,101748.14
2019-05-29T10:43:39.704Z,101742.23
2019-05-29T10:46:09.304Z,101744.53
2019-05-29T10:48:38.727Z,101748.77
2019-05-29T10:51:07.809Z,101748.59
2019-05-29T10:53:37.170Z,101748.08
2019-05-29T10:56:06.555Z,101742.76
2019-05-29T10:58:48.341Z,101743.27
2019-05-29T11:01:07.199Z,101740.25
2019-05-29T11:03:36.286Z,101749.33
2019-05-29T11:06:05.409Z,101746.11
2019-05-29T11:08:34.734Z,101744.41
2019-05-29T11:11:03.782Z,101738.06
2019-05-29T11:13:32.884Z,101743.11
2019-05-29T11:16:01.905Z,101747.97
2019-05-29T11:18:31.089Z,101738.80
2019-05-29T11:21:00.159Z,101739.17
2019-05-29T11:23:29.222Z,101736.14
2019-05-29T11:25:58.284Z,101735.32
2019-05-29T11:28:27.352Z,101736.91
2019-05-29T11:30:57.243Z,101736.89
2019-05-29T11:33:26.357Z,101733.70
2019-05-29T11:36:07.412Z,101734.56
2019-05-29T11:38:26.129Z,101727.55
2019-05-29T11:41:20.469Z,101730.71
2019-05-29T11:43:26.551Z,101731.06
2019-05-29T11:45:57.271Z,101730.48
2019-05-29T11:48:26.639Z,101727.38
2019-05-29T11:50:56.174Z,101729.75
2019-05-29T11:53:25.285Z,101733.22
2019-05-29T11:55:55.713Z,101721.24
2019-05-29T11:58:31.132Z,101723.44
2019-05-29T12:00:57.170Z,101730.38
2019-05-29T12:03:26.207Z,101721.77
2019-05-29T12:05:55.450Z,101732.25
2019-05-29T12:08:24.484Z,101722.64
2019-05-29T12:10:53.506Z,101723.53
2019-05-29T12:13:22.645Z,101732.75
2019-05-29T12:15:51.954Z,101737.58
2019-05-29T12:18:24.286Z,101731.86
2019-05-29T12:20:52.148Z,101731.62
2019-05-29T12:23:26.470Z,101730.94
2019-05-29T12:26:10.316Z,101728.48
2019-05-29T12:28:22.703Z,101718.11
2019-05-29T12:30:53.343Z,101716.22
2019-05-29T12:33:22.519Z,101720.64
2019-05-29T12:35:52.781Z,101709.48
2019-05-29T12:38:21.889Z,101709.72
2019-05-29T12:40:51.208Z,101704.51
2019-05-29T12:43:27.280Z,101713.78
2019-05-29T12:45:51.525Z,101713.51
2019-05-29T12:48:21.022Z,101714.73
2019-05-29T12:50:50.443Z,101706.46
2019-05-29T12:53:29.704Z,101702.00
2019-05-29T12:55:50.606Z,101706.97
2019-05-29T12:58:19.746Z,101709.77
2019-05-29T13:00:49.021Z,101708.77
2019-05-29T13:03:18.026Z,101705.80
2019-05-29T13:05:47.119Z,101697.09
2019-05-29T13:08:16.183Z,101697.17
2019-05-29T13:10:45.234Z,101704.22
2019-05-29T13:13:14.291Z,101706.23
2019-05-29T13:15:43.294Z,101700.89
2019-05-29T13:18:12.621Z,101695.73
2019-05-29T13:20:41.868Z,101699.52
2019-05-29T13:23:11.239Z,101697.64
2019-05-29T13:25:40.318Z,101694.59
2019-05-29T13:28:09.367Z,101687.95
2019-05-29T13:30:39.458Z,101696.11
2019-05-29T13:33:09.124Z,101700.27
2019-05-29T13:35:38.494Z,101690.80
2019-05-29T13:38:07.563Z,101687.94
2019-05-29T13:40:36.596Z,101693.45
2019-05-29T13:43:14.720Z,101688.89
2019-05-29T13:45:36.961Z,101681.10
2019-05-29T13:48:07.349Z,101676.94
2019-05-29T13:50:36.816Z,101682.52
2019-05-29T13:53:07.467Z,101676.42
2019-05-29T13:55:36.617Z,101675.00
2019-05-29T13:58:05.937Z,101668.36
2019-05-29T14:00:35.435Z,101677.55
2019-05-29T14:03:05.420Z,101668.88
2019-05-29T14:05:35.658Z,101667.81
2019-05-29T14:08:04.948Z,101666.59
2019-05-29T14:10:33.918Z,101667.43
2019-05-29T14:13:03.076Z,101667.86
2019-05-29T14:15:32.778Z,101666.79
2019-05-29T14:18:02.875Z,101666.88
2019-05-29T14:20:32.073Z,101669.17
2019-05-29T14:23:01.290Z,101670.08
2019-05-29T14:25:30.438Z,101665.37
2019-05-29T14:28:00.768Z,101673.80
2019-05-29T14:30:30.053Z,101663.26
2019-05-29T14:32:59.090Z,101669.00
2019-05-29T14:35:28.163Z,101660.20
2019-05-29T14:37:57.501Z,101670.08
2019-05-29T14:40:27.101Z,101663.33
2019-05-29T14:42:56.754Z,101664.09
2019-05-29T14:45:25.762Z,101666.44
2019-05-29T14:47:54.804Z,101672.41
2019-05-29T14:50:24.722Z,101664.91
2019-05-29T14:52:53.746Z,101669.62
2019-05-29T14:55:22.781Z,101663.99
2019-05-29T14:57:51.850Z,101660.72
2019-05-29T15:00:25.515Z,101667.64
2019-05-29T15:02:52.049Z,101665.14
2019-05-29T15:05:21.275Z,101667.00
2019-05-29T15:07:50.669Z,101661.86
2019-05-29T15:10:26.763Z,101669.23
2019-05-29T15:12:51.247Z,101670.39
2019-05-29T15:15:22.123Z,101662.68
2019-05-29T15:17:51.187Z,101656.58
2019-05-29T15:20:20.770Z,101659.38
2019-05-29T15:22:49.799Z,101670.46
2019-05-29T15:25:23.918Z,101665.82
2019-05-29T15:27:50.209Z,101666.68
2019-05-29T15:30:23.152Z,101670.42
2019-05-29T15:32:50.584Z,101673.22
2019-05-29T15:35:20.275Z,101664.75
2019-05-29T15:37:49.774Z,101654.58
2019-05-29T15:40:18.888Z,101668.03
2019-05-29T15:42:47.890Z,101664.92
2019-05-29T15:45:18.376Z,101668.72
2019-05-29T15:47:47.421Z,101663.60
2019-05-29T15:50:17.951Z,101656.30
2019-05-29T15:52:47.567Z,101655.05
2019-05-29T15:55:28.332Z,101663.30
2019-05-29T15:57:48.320Z,101667.66
2019-05-29T16:00:19.034Z,101668.95
2019-05-29T16:02:49.637Z,101667.62
2019-05-29T16:05:19.606Z,101669.86
2019-05-29T16:07:48.674Z,101667.47
2019-05-29T16:10:20.838Z,101675.21
2019-05-29T16:12:49.471Z,101668.41
2019-05-29T16:15:19.501Z,101676.58
2019-05-29T16:17:48.710Z,101680.20
2019-05-29T16:20:18.711Z,101679.43
2019-05-29T16:22:47.890Z,101675.22
2019-05-29T16:25:18.983Z,101673.36
2019-05-29T16:27:48.160Z,101672.09
2019-05-29T16:30:18.021Z,101671.18
2019-05-29T16:32:47.194Z,101674.81
2019-05-29T16:35:17.199Z,101669.16
2019-05-29T16:37:46.403Z,101681.48
2019-05-29T16:40:18.166Z,101672.28
2019-05-29T16:42:47.692Z,101680.20
2019-05-29T16:45:18.323Z,101676.32
2019-05-29T16:47:47.630Z,101677.69
2019-05-29T16:50:19.368Z,101672.92
2019-05-29T16:52:49.131Z,101677.53
2019-05-29T16:55:19.356Z,101676.91
2019-05-29T16:57:48.503Z,101679.02
2019-05-29T17:00:19.717Z,101676.09
2019-05-29T17:02:48.767Z,101683.22
2019-05-29T17:05:20.322Z,101672.14
2019-05-29T17:07:49.595Z,101685.50
2019-05-29T17:10:22.522Z,101689.28
2019-05-29T17:12:51.935Z,101686.97
2019-05-29T17:15:22.704Z,101684.44
2019-05-29T17:17:51.962Z,101696.45
2019-05-29T17:20:37.017Z,101690.72
2019-05-29T17:23:06.089Z,101693.14
2019-05-29T17:25:35.380Z,101697.94
2019-05-29T17:28:04.784Z,101692.00
2019-05-29T17:30:33.799Z,101691.86
2019-05-29T17:33:02.877Z,101696.38
2019-05-29T17:35:32.212Z,101693.42
2019-05-29T17:38:01.276Z,101696.48
2019-05-29T17:40:30.336Z,101693.44
2019-05-29T17:42:59.370Z,101697.52
2019-05-29T17:45:28.409Z,101693.44
2019-05-29T17:47:57.752Z,101692.61
2019-05-29T17:50:27.124Z,101691.86
2019-05-29T17:52:56.595Z,101696.03
2019-05-29T17:55:26.513Z,101691.31
2019-05-29T17:57:55.514Z,101692.13
2019-05-29T18:00:24.885Z,101699.21
2019-05-29T18:02:54.081Z,101693.37
2019-05-29T18:05:24.564Z,101702.07
2019-05-29T18:07:53.675Z,101700.27
2019-05-29T18:10:24.130Z,101705.88
2019-05-29T18:12:54.234Z,101710.71
2019-05-29T18:15:23.770Z,101701.53
2019-05-29T18:17:53.537Z,101701.53
2019-05-29T18:20:23.638Z,101706.94
2019-05-29T18:22:52.768Z,101705.08
2019-05-29T18:25:21.983Z,101707.20
2019-05-29T18:27:51.151Z,101703.58
2019-05-29T18:30:20.354Z,101702.70
2019-05-29T18:32:49.410Z,101709.81
2019-05-29T18:35:19.036Z,101702.36
2019-05-29T18:37:48.785Z,101701.68
2019-05-29T18:40:20.222Z,101706.17
2019-05-29T18:42:49.708Z,101701.83
2019-05-29T18:45:21.594Z,101707.11
2019-05-29T18:47:49.949Z,101713.33
2019-05-29T18:50:21.374Z,101705.91
2019-05-29T18:52:50.710Z,101707.02
2019-05-29T18:55:20.760Z,101712.30
2019-05-29T18:57:49.997Z,101712.20
2019-05-29T19:00:19.328Z,101709.91
2019-05-29T19:02:48.402Z,101714.29
2019-05-29T19:05:17.558Z,101720.03
2019-05-29T19:07:47.047Z,101718.91
2019-05-29T19:10:17.963Z,101720.84
2019-05-29T19:12:47.044Z,101724.58
2019-05-29T19:15:16.242Z,101725.38
2019-05-29T19:17:45.325Z,101734.34
2019-05-29T19:20:15.870Z,101733.06
2019-05-29T19:22:45.813Z,101725.50
2019-05-29T19:25:15.676Z,101727.44
2019-05-29T19:27:44.732Z,101734.55
2019-05-29T19:30:13.823Z,101727.90
2019-05-29T19:32:43.234Z,101729.27
2019-05-29T19:35:12.937Z,101731.86
2019-05-29T19:37:42.074Z,101729.52
2019-05-29T19:40:12.313Z,101730.43
2019-05-29T19:42:41.766Z,101727.46
2019-05-29T19:45:13.909Z,101740.83
2019-05-29T19:47:44.098Z,101732.95
2019-05-29T19:50:14.126Z,101739.92
2019-05-29T19:52:43.724Z,101742.83
2019-05-29T19:55:13.305Z,101743.42
2019-05-29T19:57:54.684Z,101749.30
2019-05-29T20:00:13.835Z,101757.44
2019-05-29T20:02:42.878Z,101758.97
2019-05-29T20:05:12.856Z,101763.79
2019-05-29T20:07:42.250Z,101766.02
2019-05-29T20:10:11.678Z,101766.92
2019-05-29T20:12:41.112Z,101770.56
2019-05-29T20:15:10.840Z,101774.70
2019-05-29T20:17:39.948Z,101772.77
2019-05-29T20:20:09.829Z,101769.14
2019-05-29T20:22:39.652Z,101771.71
2019-05-29T20:25:08.894Z,101772.23
2019-05-29T20:27:38.650Z,101766.36
2019-05-29T20:30:08.669Z,101770.73
2019-05-29T20:32:38.974Z,101767.14
2019-05-29T20:35:08.130Z,101770.66
2019-05-29T20:37:38.400Z,101771.80
2019-05-29T20:40:07.956Z,101767.38
2019-05-29T20:42:38.446Z,101770.54
2019-05-29T20:45:08.127Z,101763.38
2019-05-29T20:47:38.152Z,101767.95
2019-05-29T20:50:07.342Z,101764.11
2019-05-29T20:52:37.302Z,101762.75
2019-05-29T20:55:07.015Z,101766.58
2019-05-29T20:57:36.082Z,101765.37
2019-05-29T21:00:06.264Z,101765.77
2019-05-29T21:02:36.048Z,101767.86
2019-05-29T21:05:05.893Z,101767.14
2019-05-29T21:07:34.931Z,101761.81
2019-05-29T21:10:04.897Z,101764.60
2019-05-29T21:12:35.140Z,101764.70
2019-05-29T21:15:05.023Z,101762.46
2019-05-29T21:17:34.094Z,101761.66
2019-05-29T21:20:03.163Z,101764.36
2019-05-29T21:22:32.237Z,101762.83
2019-05-29T21:25:08.318Z,101764.05
2019-05-29T21:27:32.066Z,101772.85
2019-05-29T21:30:01.086Z,101766.11
2019-05-29T21:32:30.139Z,101776.91
2019-05-29T21:34:59.497Z,101774.41
2019-05-29T21:37:29.162Z,101776.23
2019-05-29T21:39:58.458Z,101780.08
2019-05-29T21:42:27.886Z,101777.47
2019-05-29T21:44:56.987Z,101776.55
2019-05-29T21:47:26.024Z,101769.02
2019-05-29T21:49:55.361Z,101770.44
2019-05-29T21:52:24.359Z,101773.73
2019-05-29T21:54:53.418Z,101769.02
2019-05-29T21:57:22.738Z,101786.84
2019-05-29T21:59:51.748Z,101774.20
2019-05-29T22:02:20.765Z,101771.38
2019-05-29T22:04:49.757Z,101775.66
2019-05-29T22:07:18.806Z,101771.51
2019-05-29T22:09:48.163Z,101773.67
2019-05-29T22:12:17.209Z,101775.83
2019-05-29T22:14:46.240Z,101772.42
2019-05-29T22:17:15.594Z,101760.00
2019-05-29T22:19:44.608Z,101764.75
2019-05-29T22:22:13.663Z,101768.15
2019-05-29T22:24:42.968Z,101765.35
2019-05-29T22:27:11.982Z,101769.00
2019-05-29T22:29:41.148Z,101763.95
2019-05-29T22:32:10.483Z,101767.56
2019-05-29T22:34:39.484Z,101768.73
2019-05-29T22:37:08.508Z,101760.16
2019-05-29T22:39:38.259Z,101772.89
2019-05-29T22:42:07.320Z,101768.13
2019-05-29T22:44:36.366Z,101769.53
2019-05-29T22:47:05.676Z,101768.87
2019-05-29T22:49:34.686Z,101774.15
2019-05-29T22:52:03.714Z,101767.69
2019-05-29T22:54:32.748Z,101768.80
2019-05-29T22:57:02.177Z,101756.45
2019-05-29T22:59:32.366Z,101759.20
2019-05-29T23:02:02.607Z,101759.20
2019-05-29T23:04:31.973Z,101756.89
2019-05-29T23:07:02.465Z,101750.85
2019-05-29T23:09:31.616Z,101739.09
2019-05-29T23:12:00.610Z,101737.41
2019-05-29T23:14:29.645Z,101730.03
2019-05-29T23:16:58.992Z,101729.74
2019-05-29T23:19:28.023Z,101725.72
2019-05-29T23:21:57.044Z,101736.13
2019-05-29T23:24:26.054Z,101730.71
2019-05-29T23:26:56.627Z,101727.69
2019-05-29T23:29:25.720Z,101729.39
2019-05-29T23:31:55.040Z,101723.83
2019-05-29T23:34:24.088Z,101718.89
2019-05-29T23:36:53.109Z,101716.53
2019-05-29T23:39:22.497Z,101717.91
2019-05-29T23:41:51.538Z,101722.13
2019-05-29T23:44:20.572Z,101717.23
2019-05-29T23:46:49.622Z,101703.31
2019-05-29T23:49:19.068Z,101724.17
2019-05-29T23:51:48.121Z,101700.84
2019-05-29T23:54:17.142Z,101714.53
2019-05-29T23:56:46.228Z,101708.13
2019-05-29T23:59:15.648Z,101707.80
